Time,TemperatureF,DewpointF,PressureIn,WindDirection,WindDirectionDegrees,WindSpeedMPH,WindSpeedGustMPH,Humidity,HourlyPrecipIn,Conditions,Clouds,dailyrainin,SolarRadiationWatts/m^2,SoftwareType,DateUTC
2013-11-26 00:13:00,35.0,15.0,-100.00,NE,35,3.0,6.0,44,0.00,,,0.00,0.000000,,2013-11-26 05:13:00,
2013-11-26 00:23:00,35.0,15.0,-100.00,NE,35,3.0,6.0,44,0.00,,,0.00,0.000000,,2013-11-26 05:23:00,
2013-11-26 00:34:00,35.0,15.0,-100.00,NE,35,3.0,6.0,44,0.00,,,0.00,0.000000,,2013-11-26 05:34:00,
2013-11-26 00:40:00,36.0,16.0,-100.00,ENE,57,4.0,7.0,43,0.00,,,0.00,0.000000,,2013-11-26 05:40:00,
2013-11-26 01:12:00,36.0,16.0,-100.00,ENE,57,4.0,7.0,43,0.00,,,0.00,0.000000,,2013-11-26 06:12:00,
2013-11-26 01:22:00,36.0,16.0,-100.00,ENE,57,4.0,7.0,43,0.00,,,0.00,0.000000,,2013-11-26 06:22:00,
2013-11-26 01:32:00,36.0,16.0,-100.00,ENE,57,4.0,7.0,43,0.00,,,0.00,0.000000,,2013-11-26 06:32:00,
2013-11-26 01:40:00,37.0,20.0,-100.00,ESE,106,3.0,9.0,50,0.00,,,0.00,0.000000,,2013-11-26 06:40:00,
2013-11-26 02:12:00,37.0,20.0,-100.00,ESE,106,3.0,9.0,50,0.00,,,0.00,0.000000,,2013-11-26 07:12:00,
2013-11-26 02:22:00,37.0,20.0,-100.00,ESE,106,3.0,9.0,50,0.00,,,0.00,0.000000,,2013-11-26 07:22:00,
2013-11-26 02:32:00,37.0,20.0,-100.00,ESE,106,3.0,9.0,50,0.00,,,0.00,0.000000,,2013-11-26 07:32:00,
2013-11-26 02:40:00,39.0,28.0,-100.00,ENE,63,5.0,11.0,65,0.00,,,0.00,0.000000,,2013-11-26 07:40:00,
2013-11-26 03:11:00,39.0,28.0,-100.00,ENE,63,5.0,11.0,65,0.00,,,0.00,0.000000,,2013-11-26 08:11:00,
2013-11-26 03:22:00,39.0,28.0,-100.00,ENE,63,5.0,11.0,65,0.00,,,0.00,0.000000,,2013-11-26 08:22:00,
2013-11-26 03:32:00,39.0,28.0,-100.00,ENE,63,5.0,11.0,65,0.00,,,0.00,0.000000,,2013-11-26 08:32:00,
2013-11-26 03:40:00,39.0,29.0,-100.00,NE,56,4.0,8.0,67,0.00,,,0.00,0.000000,,2013-11-26 08:40:00,
2013-11-26 04:11:00,39.0,29.0,-100.00,NE,56,4.0,8.0,67,0.00,,,0.00,0.000000,,2013-11-26 09:11:00,
2013-11-26 04:22:00,39.0,29.0,-100.00,NE,56,4.0,8.0,67,0.00,,,0.00,0.000000,,2013-11-26 09:22:00,
2013-11-26 04:33:00,39.0,29.0,-100.00,NE,56,4.0,8.0,67,0.00,,,0.00,0.000000,,2013-11-26 09:33:00,
2013-11-26 04:40:00,38.0,28.0,-100.00,NE,53,5.0,10.0,68,0.00,,,0.00,0.000000,,2013-11-26 09:40:00,
2013-11-26 05:12:00,38.0,28.0,-100.00,NE,53,5.0,10.0,68,0.00,,,0.00,0.000000,,2013-11-26 10:12:00,
2013-11-26 05:23:00,38.0,28.0,-100.00,NE,53,5.0,10.0,68,0.00,,,0.00,0.000000,,2013-11-26 10:23:00,
2013-11-26 05:33:00,38.0,28.0,-100.00,NE,53,5.0,10.0,68,0.00,,,0.00,0.000000,,2013-11-26 10:33:00,
2013-11-26 05:40:00,39.0,29.0,-100.00,ENE,66,5.0,10.0,68,0.00,,,0.00,0.000000,,2013-11-26 10:40:00,
2013-11-26 06:12:00,39.0,29.0,-100.00,ENE,66,5.0,10.0,68,0.00,,,0.00,0.000000,,2013-11-26 11:12:00,
2013-11-26 06:23:00,39.0,29.0,-100.00,ENE,66,5.0,10.0,68,0.00,,,0.00,0.000000,,2013-11-26 11:23:00,
2013-11-26 06:33:00,39.0,29.0,-100.00,ENE,66,5.0,10.0,68,0.00,,,0.00,0.000000,,2013-11-26 11:33:00,
2013-11-26 06:40:00,40.0,32.0,-100.00,ENE,62,5.0,10.0,73,0.00,,,0.00,0.000000,,2013-11-26 11:40:00,
2013-11-26 07:12:00,40.0,32.0,-100.00,ENE,62,5.0,10.0,73,0.00,,,0.00,0.000000,,2013-11-26 12:12:00,
2013-11-26 07:22:00,40.0,32.0,-100.00,ENE,62,5.0,10.0,73,0.00,,,0.00,0.000000,,2013-11-26 12:22:00,
2013-11-26 07:32:00,40.0,32.0,-100.00,ENE,62,5.0,10.0,73,0.00,,,0.00,0.000000,,2013-11-26 12:32:00,
2013-11-26 07:40:00,41.0,34.0,-100.00,NE,54,2.0,10.0,77,0.00,,,0.00,4.000000,,2013-11-26 12:40:00,
2013-11-26 08:11:00,41.0,34.0,-100.00,NE,54,2.0,10.0,77,0.00,,,0.00,4.000000,,2013-11-26 13:11:00,
2013-11-26 08:22:00,41.0,34.0,-100.00,NE,54,2.0,10.0,77,0.00,,,0.00,4.000000,,2013-11-26 13:22:00,
2013-11-26 08:32:00,41.0,34.0,-100.00,NE,54,2.0,10.0,77,0.00,,,0.00,4.000000,,2013-11-26 13:32:00,
2013-11-26 08:40:00,41.0,36.0,-100.00,ENE,75,4.0,9.0,81,0.00,,,0.00,31.000000,,2013-11-26 13:40:00,
2013-11-26 09:12:00,41.0,36.0,-100.00,ENE,75,4.0,9.0,81,0.00,,,0.00,31.000000,,2013-11-26 14:12:00,
2013-11-26 09:22:00,41.0,36.0,-100.00,ENE,75,4.0,9.0,81,0.00,,,0.00,31.000000,,2013-11-26 14:22:00,
2013-11-26 09:32:00,41.0,36.0,-100.00,ENE,75,4.0,9.0,81,0.00,,,0.00,31.000000,,2013-11-26 14:32:00,
2013-11-26 09:40:00,44.0,38.0,-100.00,ENE,69,3.0,10.0,80,0.00,,,0.00,58.000000,,2013-11-26 14:40:00,
2013-11-26 10:12:00,44.0,38.0,-100.00,ENE,69,3.0,10.0,80,0.00,,,0.00,58.000000,,2013-11-26 15:12:00,
2013-11-26 10:22:00,44.0,38.0,-100.00,ENE,69,3.0,10.0,80,0.00,,,0.00,58.000000,,2013-11-26 15:22:00,
2013-11-26 10:33:00,44.0,38.0,-100.00,ENE,69,3.0,10.0,80,0.00,,,0.00,58.000000,,2013-11-26 15:33:00,
2013-11-26 10:40:00,50.0,44.0,-100.00,ESE,115,3.0,12.0,80,0.00,,,0.00,121.000000,,2013-11-26 15:40:00,
2013-11-26 11:13:00,50.0,44.0,-100.00,ESE,115,3.0,12.0,80,0.00,,,0.00,121.000000,,2013-11-26 16:13:00,
2013-11-26 11:23:00,50.0,44.0,-100.00,ESE,115,3.0,12.0,80,0.00,,,0.00,121.000000,,2013-11-26 16:23:00,
2013-11-26 11:34:00,50.0,44.0,-100.00,ESE,115,3.0,12.0,80,0.00,,,0.00,121.000000,,2013-11-26 16:34:00,
2013-11-26 11:40:00,54.0,49.0,-100.00,SE,125,3.0,10.0,84,0.00,,,0.00,116.000000,,2013-11-26 16:40:00,
2013-11-26 12:13:00,54.0,49.0,-100.00,SE,125,3.0,10.0,84,0.00,,,0.00,116.000000,,2013-11-26 17:13:00,
2013-11-26 12:22:00,54.0,49.0,-100.00,SE,125,3.0,10.0,84,0.00,,,0.00,116.000000,,2013-11-26 17:22:00,
2013-11-26 12:33:00,54.0,49.0,-100.00,SE,125,3.0,10.0,84,0.00,,,0.00,116.000000,,2013-11-26 17:33:00,
2013-11-26 12:40:00,58.0,55.0,-100.00,SE,127,4.0,11.0,90,0.01,,,0.01,106.000000,,2013-11-26 17:40:00,
2013-11-26 13:11:00,58.0,55.0,-100.00,SE,127,4.0,11.0,90,0.01,,,0.01,106.000000,,2013-11-26 18:11:00,
2013-11-26 13:22:00,58.0,55.0,-100.00,SE,127,4.0,11.0,90,0.01,,,0.01,106.000000,,2013-11-26 18:22:00,
2013-11-26 13:32:00,58.0,55.0,-100.00,SE,127,4.0,11.0,90,0.01,,,0.01,106.000000,,2013-11-26 18:32:00,
2013-11-26 13:40:00,61.0,59.0,-100.00,SE,140,8.0,15.0,92,0.02,,,0.03,65.000000,,2013-11-26 18:40:00,
2013-11-26 14:12:00,61.0,59.0,-100.00,SE,140,8.0,15.0,92,0.02,,,0.03,65.000000,,2013-11-26 19:12:00,
2013-11-26 14:22:00,61.0,59.0,-100.00,SE,140,8.0,15.0,92,0.02,,,0.03,65.000000,,2013-11-26 19:22:00,
2013-11-26 14:32:00,61.0,59.0,-100.00,SE,140,8.0,15.0,92,0.02,,,0.03,65.000000,,2013-11-26 19:32:00,
2013-11-26 14:40:00,61.0,60.0,-100.00,SE,146,10.0,15.0,95,0.10,,,0.13,33.000000,,2013-11-26 19:40:00,
2013-11-26 15:12:00,61.0,60.0,-100.00,SE,146,10.0,15.0,95,0.10,,,0.13,33.000000,,2013-11-26 20:12:00,
2013-11-26 15:22:00,61.0,60.0,-100.00,SE,146,10.0,15.0,95,0.10,,,0.13,33.000000,,2013-11-26 20:22:00,
2013-11-26 15:32:00,61.0,60.0,-100.00,SE,146,10.0,15.0,95,0.10,,,0.13,33.000000,,2013-11-26 20:32:00,
2013-11-26 15:40:00,62.0,61.0,-100.00,SE,145,10.0,15.0,96,0.06,,,0.19,23.000000,,2013-11-26 20:40:00,
2013-11-26 16:11:00,62.0,61.0,-100.00,SE,145,10.0,15.0,96,0.06,,,0.19,23.000000,,2013-11-26 21:11:00,
2013-11-26 16:22:00,62.0,61.0,-100.00,SE,145,10.0,15.0,96,0.06,,,0.19,23.000000,,2013-11-26 21:22:00,
2013-11-26 16:34:00,62.0,61.0,-100.00,SE,145,10.0,15.0,96,0.06,,,0.19,23.000000,,2013-11-26 21:34:00,
2013-11-26 16:40:00,63.0,62.0,-100.00,SSE,148,11.0,18.0,96,0.03,,,0.22,16.000000,,2013-11-26 21:40:00,
2013-11-26 17:13:00,63.0,62.0,-100.00,SSE,148,11.0,18.0,96,0.03,,,0.22,16.000000,,2013-11-26 22:13:00,
2013-11-26 17:23:00,63.0,62.0,-100.00,SSE,148,11.0,18.0,96,0.03,,,0.22,16.000000,,2013-11-26 22:23:00,
2013-11-26 17:33:00,63.0,62.0,-100.00,SSE,148,11.0,18.0,96,0.03,,,0.22,16.000000,,2013-11-26 22:33:00,
2013-11-26 17:40:00,64.0,63.0,-100.00,SSE,150,14.0,20.0,97,0.14,,,0.36,1.000000,,2013-11-26 22:40:00,
2013-11-26 18:12:00,64.0,63.0,-100.00,SSE,150,14.0,20.0,97,0.14,,,0.36,1.000000,,2013-11-26 23:12:00,
2013-11-26 18:22:00,64.0,63.0,-100.00,SSE,150,14.0,20.0,97,0.14,,,0.36,1.000000,,2013-11-26 23:22:00,
2013-11-26 18:33:00,64.0,63.0,-100.00,SSE,150,14.0,20.0,97,0.14,,,0.36,1.000000,,2013-11-26 23:33:00,
2013-11-26 18:40:00,65.0,64.0,-100.00,SSE,168,9.0,19.0,96,0.16,,,0.52,0.000000,,2013-11-26 23:40:00,
2013-11-26 19:11:00,65.0,64.0,-100.00,SSE,168,9.0,19.0,96,0.16,,,0.52,0.000000,,2013-11-27 00:11:00,
2013-11-26 19:22:00,65.0,64.0,-100.00,SSE,168,9.0,19.0,96,0.16,,,0.52,0.000000,,2013-11-27 00:22:00,
2013-11-26 19:32:00,65.0,64.0,-100.00,SSE,168,9.0,19.0,96,0.16,,,0.52,0.000000,,2013-11-27 00:32:00,
2013-11-26 19:40:00,67.0,66.0,-100.00,South,189,10.0,24.0,96,0.32,,,0.84,0.000000,,2013-11-27 00:40:00,
2013-11-26 20:11:00,67.0,66.0,-100.00,South,189,10.0,24.0,96,0.32,,,0.84,0.000000,,2013-11-27 01:11:00,
2013-11-26 20:22:00,67.0,66.0,-100.00,South,189,10.0,24.0,96,0.32,,,0.84,0.000000,,2013-11-27 01:22:00,
2013-11-26 20:32:00,67.0,66.0,-100.00,South,189,10.0,24.0,96,0.32,,,0.84,0.000000,,2013-11-27 01:32:00,
2013-11-26 20:40:00,67.0,66.0,-100.00,South,179,6.0,11.0,96,0.00,,,0.84,0.000000,,2013-11-27 01:40:00,
2013-11-26 21:12:00,67.0,66.0,-100.00,South,179,6.0,11.0,96,0.00,,,0.84,0.000000,,2013-11-27 02:12:00,
2013-11-26 21:22:00,67.0,66.0,-100.00,South,179,6.0,11.0,96,0.00,,,0.84,0.000000,,2013-11-27 02:22:00,
2013-11-26 21:32:00,67.0,66.0,-100.00,South,179,6.0,11.0,96,0.00,,,0.84,0.000000,,2013-11-27 02:32:00,
2013-11-26 21:40:00,68.0,67.0,-100.00,South,182,9.0,14.0,96,0.03,,,0.87,0.000000,,2013-11-27 02:40:00,
2013-11-26 22:11:00,68.0,67.0,-100.00,South,182,9.0,14.0,96,0.03,,,0.87,0.000000,,2013-11-27 03:11:00,
2013-11-26 22:22:00,68.0,67.0,-100.00,South,182,9.0,14.0,96,0.03,,,0.87,0.000000,,2013-11-27 03:22:00,
2013-11-26 22:34:00,68.0,67.0,-100.00,South,182,9.0,14.0,96,0.03,,,0.87,0.000000,,2013-11-27 03:34:00,
2013-11-26 22:40:00,68.0,67.0,-100.00,SSW,203,6.0,16.0,96,0.07,,,0.94,0.000000,,2013-11-27 03:40:00,
2013-11-26 23:13:00,68.0,67.0,-100.00,SSW,203,6.0,16.0,96,0.07,,,0.94,0.000000,,2013-11-27 04:13:00,
2013-11-26 23:23:00,68.0,67.0,-100.00,SSW,203,6.0,16.0,96,0.07,,,0.94,0.000000,,2013-11-27 04:23:00,
2013-11-26 23:34:00,68.0,67.0,-100.00,SSW,203,6.0,16.0,96,0.07,,,0.94,0.000000,,2013-11-27 04:34:00,
2013-11-26 23:40:00,68.0,67.0,-100.00,SW,215,9.0,15.0,95,0.04,,,0.98,0.000000,,2013-11-27 04:40:00,